Time;durP1;ratioP1;P1;durP2;ratioP2;P2;SDS_P1;SDS_P2;PMS_P1;PMS_P2;Temp;Humidity;BMP_temperature;BMP_pressure;BME280_temperature;BME280_humidity;BME280_pressure;Samples;Min_cycle;Max_cycle;Signal;HPM_P1;HPM_P2
2022/04/08 00:01:27;;;;;;;7.97;1.20;;;5.10;99.90;;;;;;5097433;27;20031;-66
2022/04/08 00:03:53;;;;;;;8.00;1.30;;;5.00;99.90;;;;;;5106053;28;20043;-66
2022/04/08 00:06:20;;;;;;;7.68;1.00;;;5.00;99.90;;;;;;5088057;28;20078;-65
2022/04/08 00:08:47;;;;;;;6.38;1.15;;;5.00;99.90;;;;;;5109725;27;20147;-66
2022/04/08 00:11:13;;;;;;;6.60;1.35;;;5.10;99.90;;;;;;5102796;28;20043;-66
2022/04/08 00:13:38;;;;;;;5.32;1.48;;;5.00;99.90;;;;;;5107302;27;20461;-67
2022/04/08 00:16:05;;;;;;;5.28;1.23;;;5.10;99.90;;;;;;5088958;28;20043;-65
2022/04/08 00:18:31;;;;;;;8.48;1.45;;;5.00;99.90;;;;;;5089329;27;20054;-66
2022/04/08 00:20:57;;;;;;;7.25;1.40;;;5.00;99.90;;;;;;5088161;28;20039;-67
2022/04/08 00:23:23;;;;;;;9.07;1.65;;;5.00;99.90;;;;;;5085387;28;20089;-66
2022/04/08 00:25:48;;;;;;;4.03;0.90;;;5.00;99.90;;;;;;5070309;28;20178;-67
2022/04/08 00:28:14;;;;;;;9.15;1.40;;;5.00;99.90;;;;;;5094008;28;20593;-66
2022/04/08 00:30:40;;;;;;;6.10;1.27;;;5.00;99.90;;;;;;5072814;28;20052;-66
2022/04/08 00:33:05;;;;;;;10.60;1.52;;;5.10;99.90;;;;;;5085554;28;20043;-67
2022/04/08 00:35:31;;;;;;;13.13;1.30;;;4.90;99.90;;;;;;5116229;27;20106;-65
2022/04/08 00:37:57;;;;;;;6.13;1.60;;;5.00;99.90;;;;;;5108888;27;20063;-66
2022/04/08 00:40:23;;;;;;;12.52;1.70;;;5.00;99.90;;;;;;5084114;28;20039;-66
2022/04/08 00:42:49;;;;;;;7.25;1.40;;;5.00;99.90;;;;;;5087629;28;20128;-66
2022/04/08 00:45:14;;;;;;;5.28;1.20;;;5.00;99.90;;;;;;5090471;28;20105;-66
2022/04/08 00:47:41;;;;;;;5.03;1.17;;;5.00;99.90;;;;;;5084604;27;20035;-66
2022/04/08 00:50:08;;;;;;;5.20;0.95;;;5.00;99.90;;;;;;5121890;27;20934;-66
2022/04/08 00:52:35;;;;;;;8.68;1.13;;;5.00;99.90;;;;;;5087056;28;20051;-66
2022/04/08 00:55:05;;;;;;;6.35;0.90;;;4.90;99.90;;;;;;5116908;27;20423;-66
2022/04/08 00:57:32;;;;;;;8.25;1.25;;;4.90;99.90;;;;;;5087445;28;20067;-67
2022/04/08 01:00:01;;;;;;;6.60;0.75;;;4.80;99.90;;;;;;5087022;28;20443;-68
2022/04/08 01:02:29;;;;;;;4.35;0.85;;;5.00;99.90;;;;;;5109609;27;20046;-68
2022/04/08 01:04:55;;;;;;;1.30;0.60;;;4.80;99.90;;;;;;5085755;28;20436;-66
2022/04/08 01:07:21;;;;;;;2.65;1.02;;;4.70;99.90;;;;;;5088170;28;20049;-66
2022/04/08 01:09:47;;;;;;;4.88;0.70;;;4.70;99.90;;;;;;5088346;28;20506;-68
2022/04/08 01:12:13;;;;;;;3.67;0.90;;;4.70;99.90;;;;;;5102385;28;20036;-68
2022/04/08 01:14:39;;;;;;;2.65;0.77;;;4.80;99.90;;;;;;5086619;28;20043;-67
2022/04/08 01:17:05;;;;;;;3.97;0.75;;;4.70;99.90;;;;;;5106780;28;20473;-68
2022/04/08 01:19:30;;;;;;;4.35;0.73;;;4.80;99.90;;;;;;5091928;27;20042;-67
2022/04/08 01:21:56;;;;;;;1.67;0.65;;;4.70;99.90;;;;;;5113504;27;20039;-68
2022/04/08 01:24:23;;;;;;;2.63;0.57;;;4.50;99.90;;;;;;5100949;28;20035;-67
2022/04/08 01:26:51;;;;;;;2.53;0.63;;;4.50;99.90;;;;;;5086735;28;20042;-67
2022/04/08 01:29:16;;;;;;;4.30;0.70;;;4.50;99.90;;;;;;5076946;27;20055;-67
2022/04/08 01:31:44;;;;;;;2.58;1.05;;;4.40;99.90;;;;;;5121716;27;20458;-68
2022/04/08 01:34:10;;;;;;;3.55;0.52;;;4.40;99.90;;;;;;5102277;28;20440;-69
2022/04/08 01:36:37;;;;;;;4.20;0.88;;;4.40;99.90;;;;;;5083952;28;20047;-70
2022/04/08 01:39:03;;;;;;;4.40;0.70;;;4.30;99.90;;;;;;5091329;28;20044;-67
2022/04/08 01:41:31;;;;;;;3.20;0.65;;;4.30;99.90;;;;;;5084608;28;20487;-67
2022/04/08 01:43:56;;;;;;;3.35;0.70;;;4.20;99.90;;;;;;5099387;28;20656;-69
2022/04/08 01:46:22;;;;;;;2.95;0.80;;;4.20;99.90;;;;;;5089920;28;20119;-68
2022/04/08 01:48:51;;;;;;;2.65;0.80;;;4.10;99.90;;;;;;5090059;28;20084;-67
2022/04/08 01:51:16;;;;;;;3.33;0.80;;;4.00;99.90;;;;;;5085034;28;20065;-67
2022/04/08 01:53:42;;;;;;;3.40;0.90;;;3.90;99.90;;;;;;5089804;28;20052;-66
2022/04/08 01:56:07;;;;;;;8.32;0.90;;;4.00;99.90;;;;;;5110108;28;20084;-67
2022/04/08 01:58:33;;;;;;;3.78;0.88;;;4.00;99.90;;;;;;5071375;28;20076;-67
2022/04/08 02:00:59;;;;;;;2.40;0.88;;;3.90;99.90;;;;;;5086820;28;20046;-67
2022/04/08 02:03:25;;;;;;;7.57;1.02;;;3.80;99.90;;;;;;5090215;28;20107;-67
2022/04/08 02:05:51;;;;;;;3.95;1.10;;;3.90;99.90;;;;;;5109061;28;20097;-67
2022/04/08 02:08:17;;;;;;;6.35;1.10;;;3.80;99.90;;;;;;5111280;28;20032;-67
2022/04/08 02:10:42;;;;;;;5.45;0.95;;;3.80;99.90;;;;;;5089110;28;20126;-67
2022/04/08 02:13:08;;;;;;;6.82;0.90;;;3.70;99.90;;;;;;5105109;28;20064;-67
2022/04/08 02:15:35;;;;;;;2.47;0.90;;;3.70;99.90;;;;;;5120921;28;20052;-68
2022/04/08 02:18:01;;;;;;;4.32;1.20;;;3.60;99.90;;;;;;5107841;28;20118;-67
2022/04/08 02:20:29;;;;;;;4.22;1.73;;;3.60;99.90;;;;;;5086761;28;20039;-68
2022/04/08 02:22:54;;;;;;;5.32;0.90;;;3.60;99.90;;;;;;5091827;28;20039;-67
2022/04/08 02:25:20;;;;;;;7.30;1.20;;;3.50;99.90;;;;;;5087472;28;20478;-67
2022/04/08 02:27:46;;;;;;;4.00;1.08;;;3.40;99.90;;;;;;5104017;28;20050;-67
2022/04/08 02:30:12;;;;;;;5.45;1.10;;;3.40;99.90;;;;;;5076878;28;20344;-66
2022/04/08 02:32:38;;;;;;;7.45;0.85;;;3.40;99.90;;;;;;5070179;28;20131;-67
2022/04/08 02:35:04;;;;;;;5.90;0.90;;;3.30;99.90;;;;;;5077486;28;20048;-67
2022/04/08 02:37:30;;;;;;;4.70;1.27;;;3.20;99.90;;;;;;5071375;28;20475;-68
2022/04/08 02:39:55;;;;;;;5.68;1.30;;;3.20;99.90;;;;;;5059827;28;20037;-68
2022/04/08 02:42:21;;;;;;;5.40;0.98;;;3.10;99.90;;;;;;5064875;28;20456;-67
2022/04/08 02:44:46;;;;;;;7.07;1.50;;;3.10;99.90;;;;;;5063889;28;20040;-67
2022/04/08 02:47:12;;;;;;;3.63;1.15;;;3.10;99.90;;;;;;5066655;28;20094;-67
2022/04/08 02:49:38;;;;;;;8.27;1.10;;;3.00;99.90;;;;;;5064112;28;20439;-68
2022/04/08 02:52:04;;;;;;;10.43;2.35;;;3.10;99.90;;;;;;5067136;28;20223;-69
2022/04/08 02:54:29;;;;;;;6.13;1.42;;;3.20;99.90;;;;;;5059355;28;20042;-71
2022/04/08 02:56:55;;;;;;;4.38;1.52;;;3.20;99.90;;;;;;5072247;28;20036;-69
2022/04/08 02:59:20;;;;;;;6.13;1.35;;;3.30;99.90;;;;;;5075980;28;20035;-68
2022/04/08 03:01:46;;;;;;;8.32;1.55;;;3.30;99.90;;;;;;5074076;28;20456;-69
2022/04/08 03:04:11;;;;;;;7.00;1.23;;;3.30;99.90;;;;;;5067622;28;20043;-67
2022/04/08 03:06:37;;;;;;;6.53;1.33;;;3.30;99.90;;;;;;5077195;28;20044;-68
2022/04/08 03:09:03;;;;;;;4.00;1.13;;;3.30;99.90;;;;;;5066696;28;20024;-69
2022/04/08 03:11:29;;;;;;;9.90;1.38;;;3.20;99.90;;;;;;5066146;28;20123;-68
2022/04/08 03:13:59;;;;;;;7.13;1.70;;;3.20;99.90;;;;;;5065475;28;20143;-69
2022/04/08 03:16:25;;;;;;;5.28;1.20;;;3.10;99.90;;;;;;5069840;28;20127;-67
2022/04/08 03:18:50;;;;;;;6.05;1.08;;;2.90;99.90;;;;;;5049976;28;20095;-68
2022/04/08 03:21:16;;;;;;;6.07;1.30;;;2.90;99.90;;;;;;5063616;28;20123;-69
2022/04/08 03:23:43;;;;;;;6.72;1.00;;;2.80;99.90;;;;;;5066474;28;20455;-68
2022/04/08 03:26:08;;;;;;;7.03;1.40;;;2.80;99.90;;;;;;5046654;28;20090;-68
2022/04/08 03:28:34;;;;;;;5.53;1.10;;;2.80;99.90;;;;;;5063982;28;20045;-69
2022/04/08 03:31:01;;;;;;;4.63;1.25;;;2.90;99.90;;;;;;5069020;28;20048;-69
2022/04/08 03:33:27;;;;;;;8.18;1.30;;;2.70;99.90;;;;;;5061513;28;20132;-68
2022/04/08 03:35:53;;;;;;;9.75;2.00;;;2.70;99.90;;;;;;5071777;28;20480;-68
2022/04/08 03:38:18;;;;;;;3.20;0.95;;;2.70;99.90;;;;;;5064470;28;20048;-69
2022/04/08 03:40:44;;;;;;;8.00;1.13;;;2.70;99.90;;;;;;5061202;28;20045;-68
2022/04/08 03:43:09;;;;;;;11.20;1.30;;;2.70;99.90;;;;;;5065967;28;20048;-68
2022/04/08 03:45:35;;;;;;;5.60;1.45;;;2.60;99.90;;;;;;5069042;28;20036;-69
2022/04/08 03:48:02;;;;;;;7.30;1.40;;;2.70;99.90;;;;;;5070241;28;20494;-68
2022/04/08 03:50:27;;;;;;;8.52;1.77;;;2.80;99.90;;;;;;5073342;28;20037;-69
2022/04/08 03:52:53;;;;;;;9.10;2.55;;;2.60;99.90;;;;;;5064941;28;20472;-68
2022/04/08 03:55:19;;;;;;;4.88;1.15;;;2.60;99.90;;;;;;5056117;28;20099;-68
2022/04/08 03:57:44;;;;;;;4.80;1.00;;;2.50;99.90;;;;;;5062640;28;20040;-69
2022/04/08 04:00:10;;;;;;;4.50;1.20;;;2.50;99.90;;;;;;5060214;28;20075;-66
2022/04/08 04:02:36;;;;;;;6.05;1.60;;;2.50;99.90;;;;;;5066120;28;20036;-68
2022/04/08 04:05:05;;;;;;;9.63;1.85;;;2.70;99.90;;;;;;5062363;28;20037;-68
2022/04/08 04:07:33;;;;;;;8.07;1.23;;;2.60;99.90;;;;;;5066054;28;20460;-69
2022/04/08 04:09:59;;;;;;;10.18;1.95;;;2.70;99.90;;;;;;5064825;28;20039;-69
2022/04/08 04:12:26;;;;;;;13.02;1.95;;;2.80;99.90;;;;;;5067201;28;20052;-70
2022/04/08 04:14:53;;;;;;;5.28;2.10;;;2.90;99.90;;;;;;5064726;28;20721;-69
2022/04/08 04:17:19;;;;;;;4.03;1.13;;;3.00;99.90;;;;;;5064723;28;20131;-69
2022/04/08 04:19:44;;;;;;;7.05;1.25;;;2.90;99.90;;;;;;5065789;28;20123;-70
2022/04/08 04:22:10;;;;;;;4.70;2.28;;;2.90;99.90;;;;;;5065463;28;20036;-69
2022/04/08 04:24:36;;;;;;;4.57;1.10;;;2.80;99.90;;;;;;5069572;28;20040;-70
2022/04/08 04:27:01;;;;;;;3.03;1.08;;;2.80;99.90;;;;;;5064956;28;20040;-69
2022/04/08 04:29:27;;;;;;;3.85;0.98;;;2.80;99.90;;;;;;5076120;28;20519;-70
2022/04/08 04:31:55;;;;;;;2.25;0.95;;;2.90;99.90;;;;;;5087970;28;20031;-70
2022/04/08 04:34:25;;;;;;;3.28;1.20;;;2.90;99.90;;;;;;5084333;28;20048;-69
2022/04/08 04:36:51;;;;;;;2.40;0.82;;;2.80;99.90;;;;;;5072298;28;20048;-70
2022/04/08 04:39:16;;;;;;;3.90;1.20;;;2.70;99.90;;;;;;5089449;28;20478;-68
2022/04/08 04:41:42;;;;;;;2.63;1.38;;;2.70;99.90;;;;;;5096590;28;20027;-69
2022/04/08 04:44:08;;;;;;;3.08;0.98;;;2.50;99.90;;;;;;5085947;28;20215;-69
2022/04/08 04:46:33;;;;;;;3.28;1.15;;;2.50;99.90;;;;;;5084663;28;20036;-69
2022/04/08 04:48:59;;;;;;;2.45;1.13;;;2.50;99.90;;;;;;5085967;28;20082;-68
2022/04/08 04:51:26;;;;;;;4.28;1.00;;;2.50;99.90;;;;;;5085619;28;20050;-69
2022/04/08 04:53:52;;;;;;;2.70;1.30;;;2.40;99.90;;;;;;5102285;28;20046;-69
2022/04/08 04:56:17;;;;;;;4.00;1.27;;;2.30;99.90;;;;;;5086675;28;20361;-67
2022/04/08 04:58:43;;;;;;;7.82;1.23;;;2.30;99.90;;;;;;5090228;28;20101;-69
2022/04/08 05:01:08;;;;;;;2.13;1.15;;;2.40;99.90;;;;;;5087378;28;20113;-68
2022/04/08 05:03:34;;;;;;;3.95;1.02;;;2.30;99.90;;;;;;5087744;28;20048;-69
2022/04/08 05:05:59;;;;;;;2.95;1.17;;;2.30;99.90;;;;;;5081512;28;20075;-68
2022/04/08 05:08:25;;;;;;;2.17;0.85;;;2.20;99.90;;;;;;5084474;28;20044;-69
2022/04/08 05:10:50;;;;;;;4.75;1.25;;;2.20;99.90;;;;;;5082848;28;20044;-69
2022/04/08 05:13:16;;;;;;;1.38;1.00;;;2.40;99.90;;;;;;5082063;28;20547;-70
2022/04/08 05:15:45;;;;;;;4.65;1.30;;;2.40;99.90;;;;;;5086862;28;20035;-69
2022/04/08 05:18:11;;;;;;;5.03;1.30;;;2.40;99.90;;;;;;5070132;28;20474;-69
2022/04/08 05:20:36;;;;;;;2.58;1.35;;;2.40;99.90;;;;;;5083894;28;20078;-69
2022/04/08 05:23:02;;;;;;;2.88;1.33;;;2.40;99.90;;;;;;5080192;28;20135;-69
2022/04/08 05:25:27;;;;;;;7.95;2.67;;;2.40;99.90;;;;;;5069841;28;20055;-68
2022/04/08 05:27:54;;;;;;;5.40;1.42;;;2.40;99.90;;;;;;5117912;27;20036;-68
2022/04/08 05:30:20;;;;;;;5.72;1.45;;;2.60;99.90;;;;;;5072585;28;20056;-68
2022/04/08 05:32:46;;;;;;;3.38;1.27;;;2.60;99.90;;;;;;5069036;28;20731;-68
2022/04/08 05:35:14;;;;;;;4.15;1.75;;;2.80;99.90;;;;;;5047699;28;20043;-68
2022/04/08 05:37:45;;;;;;;5.63;1.58;;;2.90;99.90;;;;;;5069904;28;20778;-67
2022/04/08 05:40:16;;;;;;;5.00;1.27;;;3.10;99.90;;;;;;5074056;28;20040;-67
2022/04/08 05:42:44;;;;;;;5.90;1.58;;;3.10;99.90;;;;;;5061551;28;20120;-68
2022/04/08 05:45:11;;;;;;;4.03;1.52;;;3.10;99.90;;;;;;5081143;28;20471;-68
2022/04/08 05:47:38;;;;;;;5.43;1.67;;;3.20;99.90;;;;;;5071565;28;20051;-68
2022/04/08 05:50:04;;;;;;;7.18;2.40;;;3.20;99.90;;;;;;5062977;28;20099;-68
2022/04/08 05:52:30;;;;;;;4.97;1.48;;;3.30;99.90;;;;;;5046340;28;20044;-68
2022/04/08 05:54:55;;;;;;;3.03;1.50;;;3.30;99.90;;;;;;5096657;28;20099;-68
2022/04/08 05:57:21;;;;;;;5.15;1.50;;;3.30;99.90;;;;;;5064147;28;20123;-68
2022/04/08 05:59:48;;;;;;;5.78;1.80;;;3.40;99.90;;;;;;5065862;28;20028;-67
2022/04/08 06:02:14;;;;;;;4.93;1.92;;;3.30;99.90;;;;;;5058020;28;20480;-68
2022/04/08 06:04:40;;;;;;;5.25;1.50;;;3.30;99.90;;;;;;5048469;28;20086;-69
2022/04/08 06:07:05;;;;;;;5.80;1.98;;;3.30;99.90;;;;;;5065828;28;20408;-69
2022/04/08 06:09:32;;;;;;;4.38;1.55;;;3.20;99.90;;;;;;5066400;28;20063;-68
2022/04/08 06:11:59;;;;;;;4.60;1.70;;;3.20;99.90;;;;;;5071629;28;20447;-68
2022/04/08 06:14:26;;;;;;;11.43;1.80;;;3.20;99.90;;;;;;5057482;28;20040;-70
2022/04/08 06:16:54;;;;;;;2.60;1.50;;;3.30;99.90;;;;;;5057657;28;20126;-68
2022/04/08 06:19:20;;;;;;;4.80;2.20;;;3.40;99.90;;;;;;5055952;28;20037;-68
2022/04/08 06:21:45;;;;;;;4.10;1.30;;;3.50;99.90;;;;;;5078464;28;20318;-67
2022/04/08 06:24:11;;;;;;;4.75;1.42;;;3.60;99.90;;;;;;5065146;28;20040;-68
2022/04/08 06:26:38;;;;;;;3.45;1.50;;;3.70;99.90;;;;;;5061184;28;20126;-69
2022/04/08 06:29:04;;;;;;;3.25;1.40;;;3.80;99.90;;;;;;5067748;28;20063;-68
2022/04/08 06:31:32;;;;;;;5.60;1.55;;;3.90;99.90;;;;;;5094894;27;20051;-67
2022/04/08 06:33:58;;;;;;;5.13;1.40;;;3.80;99.90;;;;;;5090592;27;20056;-67
2022/04/08 06:36:25;;;;;;;2.05;1.35;;;3.80;99.90;;;;;;5089222;28;20047;-70
2022/04/08 06:38:50;;;;;;;4.35;1.65;;;3.70;99.90;;;;;;5069677;28;21998;-68
2022/04/08 06:41:16;;;;;;;4.50;1.92;;;3.90;99.90;;;;;;5117992;27;20040;-67
2022/04/08 06:43:42;;;;;;;4.75;1.48;;;4.10;99.90;;;;;;5089271;28;20043;-68
2022/04/08 06:46:07;;;;;;;3.38;1.38;;;4.30;99.90;;;;;;5093528;28;20045;-68
2022/04/08 06:48:33;;;;;;;3.47;1.30;;;4.40;99.90;;;;;;5092732;28;20206;-70
2022/04/08 06:51:00;;;;;;;3.47;1.40;;;4.50;99.90;;;;;;5075013;27;20032;-68
2022/04/08 06:53:26;;;;;;;2.55;1.40;;;4.60;99.90;;;;;;5090251;28;20043;-67
2022/04/08 06:55:52;;;;;;;4.63;1.33;;;4.80;99.90;;;;;;5073966;28;20040;-68
2022/04/08 06:58:19;;;;;;;4.82;1.50;;;4.90;99.90;;;;;;5120491;27;20036;-67
2022/04/08 07:00:45;;;;;;;3.17;1.23;;;5.20;99.90;;;;;;5074405;28;20031;-68
2022/04/08 07:03:10;;;;;;;2.85;1.02;;;5.40;99.90;;;;;;5110461;28;20050;-69
2022/04/08 07:05:36;;;;;;;3.70;1.08;;;5.30;99.90;;;;;;5070767;28;20036;-68
2022/04/08 07:08:02;;;;;;;3.15;1.15;;;5.30;99.90;;;;;;5088694;28;20063;-67
2022/04/08 07:10:27;;;;;;;3.15;1.00;;;5.20;99.90;;;;;;5074145;28;20047;-69
2022/04/08 07:12:53;;;;;;;3.75;1.60;;;5.30;99.90;;;;;;5092922;28;20078;-67
2022/04/08 07:15:18;;;;;;;2.55;1.08;;;5.30;99.90;;;;;;5092290;28;20035;-66
2022/04/08 07:17:44;;;;;;;4.03;1.40;;;5.30;99.90;;;;;;5106242;28;20352;-68
2022/04/08 07:20:11;;;;;;;4.60;1.35;;;5.50;99.90;;;;;;5075510;28;20360;-68
2022/04/08 07:22:36;;;;;;;4.20;1.00;;;5.70;99.90;;;;;;5107282;27;20047;-66
2022/04/08 07:25:02;;;;;;;3.05;0.93;;;5.70;99.90;;;;;;5105298;28;20046;-70
2022/04/08 07:27:27;;;;;;;3.65;1.30;;;5.90;99.90;;;;;;5081964;27;20031;-67
2022/04/08 07:29:53;;;;;;;4.82;1.20;;;6.20;99.90;;;;;;5107195;27;20514;-69
2022/04/08 07:32:21;;;;;;;6.75;1.20;;;6.40;99.90;;;;;;5097060;28;20122;-67
2022/04/08 07:34:51;;;;;;;4.60;1.33;;;6.40;99.90;;;;;;5092497;28;20179;-67
2022/04/08 07:37:30;;;;;;;3.40;0.98;;;7.00;99.90;;;;;;5108423;27;20036;-68
2022/04/08 07:39:56;;;;;;;2.97;1.25;;;7.10;98.40;;;;;;5087085;28;20135;-66
2022/04/08 07:42:22;;;;;;;3.28;0.85;;;7.20;99.90;;;;;;5104172;28;20035;-68
2022/04/08 07:44:48;;;;;;;3.85;0.95;;;6.90;99.90;;;;;;5076562;28;20035;-66
2022/04/08 07:47:14;;;;;;;4.57;1.10;;;6.20;98.60;;;;;;5077121;27;20237;-68
2022/04/08 07:49:40;;;;;;;5.15;1.08;;;5.90;99.90;;;;;;5092942;28;20039;-67
2022/04/08 07:52:06;;;;;;;2.70;1.10;;;6.10;99.90;;;;;;5094970;27;20119;-68
2022/04/08 07:54:31;;;;;;;2.60;1.05;;;6.30;99.50;;;;;;5106373;27;20063;-68
2022/04/08 07:56:57;;;;;;;2.05;0.82;;;6.70;99.90;;;;;;5077744;28;20065;-68
2022/04/08 07:59:22;;;;;;;2.88;1.10;;;7.20;99.90;;;;;;5094755;28;20050;-68
2022/04/08 08:01:48;;;;;;;5.13;1.10;;;7.40;98.00;;;;;;5100361;27;20036;-70
2022/04/08 08:04:14;;;;;;;7.50;1.90;;;7.60;99.70;;;;;;5097547;27;20039;-69
2022/04/08 08:06:40;;;;;;;4.30;1.30;;;8.10;96.50;;;;;;5112381;27;20047;-68
2022/04/08 08:09:05;;;;;;;7.85;1.40;;;8.20;98.20;;;;;;5092076;28;20036;-68
2022/04/08 08:11:31;;;;;;;4.95;1.27;;;8.10;96.20;;;;;;5113142;27;20028;-69
2022/04/08 08:13:58;;;;;;;3.80;1.40;;;7.60;98.10;;;;;;5099957;27;20127;-67
2022/04/08 08:16:23;;;;;;;3.88;1.38;;;7.20;99.90;;;;;;5113763;27;20035;-66
2022/04/08 08:18:50;;;;;;;3.47;1.23;;;7.10;99.90;;;;;;5109921;27;20042;-67
2022/04/08 08:21:15;;;;;;;3.15;1.02;;;6.80;99.90;;;;;;5091814;28;20381;-67
2022/04/08 08:23:41;;;;;;;2.83;1.08;;;6.90;99.90;;;;;;5077944;27;20048;-66
2022/04/08 08:26:07;;;;;;;4.50;1.38;;;6.90;99.60;;;;;;5110010;27;20119;-67
2022/04/08 08:28:32;;;;;;;7.40;1.60;;;6.70;98.80;;;;;;5092895;27;20067;-67
2022/04/08 08:30:58;;;;;;;4.72;1.70;;;6.60;99.10;;;;;;5091413;28;20617;-68
2022/04/08 08:33:23;;;;;;;6.15;1.70;;;6.70;98.90;;;;;;5091418;28;20044;-67
2022/04/08 08:35:49;;;;;;;9.80;1.95;;;6.90;97.60;;;;;;5089214;27;20043;-67
2022/04/08 08:38:15;;;;;;;5.88;2.08;;;6.90;97.70;;;;;;5070016;28;20038;-66
2022/04/08 08:40:43;;;;;;;7.20;2.28;;;7.30;97.70;;;;;;5074366;27;20118;-66
2022/04/08 08:43:09;;;;;;;6.90;1.90;;;7.90;96.50;;;;;;5110836;27;20104;-67
2022/04/08 08:45:35;;;;;;;5.35;1.38;;;8.00;93.20;;;;;;5121430;27;20086;-66
2022/04/08 08:48:04;;;;;;;6.50;1.77;;;8.70;94.30;;;;;;5120825;27;20119;-68
2022/04/08 08:50:30;;;;;;;5.38;1.70;;;9.40;91.10;;;;;;5100215;27;20043;-67
2022/04/08 08:52:56;;;;;;;2.58;1.20;;;9.20;91.70;;;;;;5090432;28;20046;-68
2022/04/08 08:55:22;;;;;;;7.35;2.10;;;9.10;90.70;;;;;;5096429;27;20352;-67
2022/04/08 08:57:49;;;;;;;7.05;1.70;;;9.30;90.20;;;;;;5080461;28;20036;-68
2022/04/08 09:00:18;;;;;;;5.55;1.95;;;9.70;88.00;;;;;;5090700;28;20040;-68
2022/04/08 09:02:45;;;;;;;5.85;1.40;;;9.70;91.00;;;;;;5106555;28;20087;-68
2022/04/08 09:05:15;;;;;;;7.30;1.55;;;9.40;92.00;;;;;;5103804;27;20069;-68
2022/04/08 09:07:41;;;;;;;9.73;2.20;;;10.00;92.80;;;;;;5091466;28;20063;-67
2022/04/08 09:10:07;;;;;;;5.43;1.40;;;9.90;90.80;;;;;;5090132;28;20039;-69
2022/04/08 09:12:33;;;;;;;5.15;1.20;;;10.20;93.10;;;;;;5108947;27;20059;-69
2022/04/08 09:15:01;;;;;;;4.63;1.30;;;10.40;91.20;;;;;;5091155;28;20062;-68
2022/04/08 09:17:28;;;;;;;4.10;1.55;;;10.90;92.90;;;;;;5085637;27;20051;-66
2022/04/08 09:19:56;;;;;;;3.10;1.25;;;11.10;83.90;;;;;;5093448;28;20036;-69
2022/04/08 09:22:27;;;;;;;4.40;1.25;;;11.30;78.50;;;;;;5091910;28;20032;-69
2022/04/08 09:24:52;;;;;;;5.38;1.67;;;11.50;82.50;;;;;;5086552;28;20122;-68
2022/04/08 09:27:18;;;;;;;4.65;1.13;;;11.60;86.30;;;;;;5088529;28;20039;-69
2022/04/08 09:29:44;;;;;;;7.22;1.58;;;11.20;83.20;;;;;;5101676;28;20077;-70
2022/04/08 09:32:15;;;;;;;3.83;1.20;;;10.50;80.80;;;;;;5092673;28;20040;-68
2022/04/08 09:34:42;;;;;;;3.08;1.40;;;10.50;88.10;;;;;;5106470;28;20074;-68
2022/04/08 09:37:10;;;;;;;6.72;1.75;;;10.20;88.70;;;;;;5091124;28;20032;-69
2022/04/08 09:39:36;;;;;;;8.57;1.55;;;9.90;89.20;;;;;;5089115;28;20043;-69
2022/04/08 09:42:05;;;;;;;4.20;1.48;;;9.80;90.00;;;;;;5088163;28;20489;-69
2022/04/08 09:44:31;;;;;;;5.53;1.45;;;9.70;87.10;;;;;;5111808;27;20035;-68
2022/04/08 09:46:56;;;;;;;6.50;1.63;;;10.00;90.20;;;;;;5104086;28;20114;-67
2022/04/08 09:49:22;;;;;;;3.88;1.17;;;10.00;89.80;;;;;;5091129;28;20545;-68
2022/04/08 09:51:50;;;;;;;3.92;1.05;;;9.90;88.80;;;;;;5102518;28;20126;-68
2022/04/08 09:54:20;;;;;;;5.88;1.65;;;10.00;90.20;;;;;;5112016;27;20122;-68
2022/04/08 09:56:46;;;;;;;5.30;1.60;;;9.90;85.80;;;;;;5094508;28;20040;-69
2022/04/08 09:59:21;;;;;;;4.75;1.70;;;10.10;85.10;;;;;;5098785;28;20042;-70
2022/04/08 10:01:47;;;;;;;11.02;1.67;;;10.00;80.30;;;;;;5089310;28;20036;-69
2022/04/08 10:04:13;;;;;;;8.98;2.28;;;10.10;81.10;;;;;;5091148;28;20440;-69
2022/04/08 10:06:41;;;;;;;4.90;1.48;;;10.30;82.80;;;;;;5096338;28;20044;-68
2022/04/08 10:09:09;;;;;;;4.95;1.55;;;10.50;81.60;;;;;;5090222;28;20044;-68
2022/04/08 10:11:59;;;;;;;8.25;1.55;;;10.40;82.10;;;;;;5096742;28;20351;-69
2022/04/08 10:14:45;;;;;;;6.57;1.40;;;10.50;79.50;;;;;;5093054;28;20036;-69
2022/04/08 10:17:11;;;;;;;8.55;1.65;;;10.60;73.60;;;;;;5096088;28;20035;-69
2022/04/08 10:19:37;;;;;;;5.00;1.13;;;10.60;77.10;;;;;;5094273;28;20043;-69
2022/04/08 10:22:03;;;;;;;4.72;2.63;;;10.70;81.30;;;;;;5093525;28;20047;-68
2022/04/08 10:24:31;;;;;;;5.03;3.15;;;10.50;81.20;;;;;;5092047;28;20071;-68
2022/04/08 10:27:09;;;;;;;4.60;2.03;;;10.20;81.20;;;;;;5107538;28;20032;-71
2022/04/08 10:29:36;;;;;;;6.35;1.52;;;10.20;70.70;;;;;;5087283;28;20066;-69
2022/04/08 10:32:05;;;;;;;4.75;1.83;;;10.70;73.70;;;;;;5094488;28;20463;-68
2022/04/08 10:34:32;;;;;;;5.23;1.47;;;11.10;77.80;;;;;;5094388;28;20044;-69
2022/04/08 10:36:59;;;;;;;5.60;1.67;;;11.50;76.70;;;;;;5128262;27;20422;-68
2022/04/08 10:39:26;;;;;;;2.75;1.10;;;11.40;79.70;;;;;;5089595;28;20062;-68
2022/04/08 10:42:00;;;;;;;4.45;1.27;;;11.40;80.50;;;;;;5093384;28;20482;-69
2022/04/08 10:44:44;;;;;;;6.97;1.67;;;11.10;75.70;;;;;;5093636;28;20055;-68
2022/04/08 10:47:11;;;;;;;5.30;1.73;;;10.90;77.50;;;;;;5092211;28;20040;-68
2022/04/08 10:50:07;;;;;;;6.78;1.40;;;10.80;81.10;;;;;;5094447;28;20127;-68
2022/04/08 10:52:41;;;;;;;5.78;1.67;;;10.70;78.50;;;;;;5088311;27;20056;-68
2022/04/08 10:55:11;;;;;;;5.43;1.42;;;10.50;75.80;;;;;;5106578;27;20534;-69
2022/04/08 10:57:40;;;;;;;4.97;1.70;;;10.10;78.00;;;;;;5109515;27;20063;-68
2022/04/08 11:00:10;;;;;;;8.10;2.00;;;10.00;79.20;;;;;;5111360;27;20405;-69
2022/04/08 11:02:38;;;;;;;8.85;2.15;;;9.70;74.90;;;;;;5092343;28;20129;-67
2022/04/08 11:05:09;;;;;;;6.88;2.50;;;9.60;79.80;;;;;;5092426;27;20035;-69
2022/04/08 11:07:35;;;;;;;7.30;2.10;;;9.80;77.20;;;;;;5082497;27;20054;-69
2022/04/08 11:10:02;;;;;;;4.10;1.52;;;9.60;77.30;;;;;;5092928;27;20411;-68
2022/04/08 11:12:30;;;;;;;4.72;1.40;;;9.80;80.10;;;;;;5089960;27;20093;-69
2022/04/08 11:14:58;;;;;;;3.67;1.35;;;9.80;76.80;;;;;;5095248;28;20431;-67
2022/04/08 11:17:32;;;;;;;4.13;1.60;;;9.60;76.10;;;;;;5091555;27;20075;-69
2022/04/08 11:19:59;;;;;;;3.40;1.13;;;9.70;74.90;;;;;;5106717;28;20362;-71
2022/04/08 11:22:25;;;;;;;4.18;1.58;;;9.80;78.20;;;;;;5087528;27;20057;-69
2022/04/08 11:24:55;;;;;;;2.10;1.10;;;9.80;76.30;;;;;;5126040;27;20365;-68
2022/04/08 11:27:21;;;;;;;5.80;1.50;;;10.00;78.60;;;;;;5123463;27;20062;-70
2022/04/08 11:29:47;;;;;;;3.97;1.00;;;10.10;78.00;;;;;;5091876;28;20105;-70
2022/04/08 11:32:13;;;;;;;5.75;1.50;;;10.10;77.10;;;;;;5091527;27;20503;-68
2022/04/08 11:34:39;;;;;;;2.72;1.38;;;10.10;75.30;;;;;;5097322;27;20583;-69
2022/04/08 11:37:04;;;;;;;3.72;1.38;;;9.90;77.10;;;;;;5096215;28;20039;-70
2022/04/08 11:39:32;;;;;;;6.95;1.60;;;10.10;77.00;;;;;;5087116;28;20459;-69
2022/04/08 11:42:03;;;;;;;3.67;1.50;;;10.20;77.70;;;;;;5096334;28;20039;-68
2022/04/08 11:44:29;;;;;;;6.57;1.40;;;10.30;78.90;;;;;;5092636;28;20035;-70
2022/04/08 11:47:08;;;;;;;4.75;1.20;;;10.20;71.40;;;;;;5093931;28;20039;-69
2022/04/08 11:49:34;;;;;;;6.05;1.10;;;10.10;74.80;;;;;;5092361;28;20032;-69
2022/04/08 11:52:01;;;;;;;4.80;1.23;;;10.30;78.00;;;;;;5092075;28;20092;-69
2022/04/08 11:54:27;;;;;;;6.32;1.45;;;10.40;80.20;;;;;;5121306;27;20564;-69
2022/04/08 11:56:53;;;;;;;4.82;1.48;;;9.40;84.70;;;;;;5093907;28;20035;-70
2022/04/08 11:59:19;;;;;;;5.68;1.20;;;8.10;90.80;;;;;;5128762;27;20367;-70
2022/04/08 12:01:45;;;;;;;5.13;1.15;;;8.10;93.80;;;;;;5094055;28;20028;-69
2022/04/08 12:04:12;;;;;;;5.60;1.42;;;7.90;95.00;;;;;;5093519;27;20089;-69
2022/04/08 12:06:43;;;;;;;3.40;1.33;;;7.90;95.90;;;;;;5123093;27;20066;-69
2022/04/08 12:09:10;;;;;;;4.05;0.95;;;8.00;96.70;;;;;;5090377;28;20035;-68
2022/04/08 12:11:39;;;;;;;4.47;1.27;;;8.10;96.50;;;;;;5090400;28;20035;-69
2022/04/08 12:14:08;;;;;;;2.20;1.00;;;8.20;96.20;;;;;;5091658;28;20044;-70
2022/04/08 12:16:33;;;;;;;4.38;1.20;;;8.30;95.50;;;;;;5092474;28;20761;-70
2022/04/08 12:19:00;;;;;;;3.13;1.30;;;8.20;95.40;;;;;;5092513;28;20035;-70
2022/04/08 12:21:28;;;;;;;2.65;0.93;;;8.50;95.90;;;;;;5092423;28;20031;-69
2022/04/08 12:23:55;;;;;;;8.25;1.25;;;8.70;94.80;;;;;;5118286;27;20036;-70
2022/04/08 12:26:31;;;;;;;3.42;1.20;;;8.80;90.70;;;;;;5093760;28;20044;-69
2022/04/08 12:29:15;;;;;;;3.22;1.08;;;8.90;93.00;;;;;;5098763;27;20036;-68
2022/04/08 12:31:45;;;;;;;3.80;1.15;;;9.40;93.00;;;;;;5097763;27;20035;-69
2022/04/08 12:34:10;;;;;;;4.10;1.05;;;9.80;91.90;;;;;;5104580;27;20042;-70
2022/04/08 12:36:36;;;;;;;4.25;1.25;;;10.10;92.60;;;;;;5093795;28;20032;-68
2022/04/08 12:39:01;;;;;;;2.92;1.10;;;10.10;90.90;;;;;;5094984;28;20061;-70
2022/04/08 12:41:27;;;;;;;4.00;1.40;;;10.00;85.30;;;;;;5106999;27;20092;-68
2022/04/08 12:43:54;;;;;;;4.50;1.38;;;10.40;88.60;;;;;;5095624;28;20031;-70
2022/04/08 12:46:21;;;;;;;5.05;1.05;;;11.00;86.60;;;;;;5098621;27;20046;-69
2022/04/08 12:48:47;;;;;;;4.38;1.38;;;11.90;82.40;;;;;;5099158;28;20081;-69
2022/04/08 12:51:12;;;;;;;4.38;0.90;;;12.40;78.80;;;;;;5112145;27;20043;-69
2022/04/08 12:53:38;;;;;;;3.22;1.25;;;12.80;78.10;;;;;;5092526;27;20629;-70